createdAt,value
2022-10-22T00:02:06.818Z,13.18
2022-10-22T00:04:35.866Z,13.20
2022-10-22T00:07:07.040Z,13.43
2022-10-22T00:09:39.428Z,13.15
2022-10-22T00:12:09.208Z,12.63
2022-10-22T00:14:37.901Z,12.07
2022-10-22T00:17:10.495Z,12.82
2022-10-22T00:19:40.529Z,12.48
2022-10-22T00:22:11.383Z,12.60
2022-10-22T00:24:41.206Z,12.23
2022-10-22T00:27:13.013Z,13.10
2022-10-22T00:29:41.296Z,12.05
2022-10-22T00:32:12.721Z,11.93
2022-10-22T00:34:40.938Z,12.60
2022-10-22T00:37:09.405Z,12.32
2022-10-22T00:39:37.835Z,12.40
2022-10-22T00:42:07.228Z,12.52
2022-10-22T00:45:09.826Z,11.98
2022-10-22T00:47:41.310Z,12.80
2022-10-22T00:50:16.148Z,12.23
2022-10-22T00:52:45.395Z,12.23
2022-10-22T00:55:16.026Z,12.43
2022-10-22T00:57:45.269Z,12.80
2022-10-22T01:00:16.695Z,11.48
2022-10-22T01:02:46.919Z,12.30
2022-10-22T01:05:15.370Z,12.43
2022-10-22T01:07:46.863Z,11.43
2022-10-22T01:10:23.978Z,12.35
2022-10-22T01:13:01.608Z,12.38
2022-10-22T01:15:40.083Z,12.55
2022-10-22T01:18:12.387Z,12.18
2022-10-22T01:21:01.276Z,11.57
2022-10-22T01:23:57.025Z,11.95
2022-10-22T01:26:35.053Z,12.27
2022-10-22T01:29:14.575Z,12.13
2022-10-22T01:31:47.542Z,11.65
2022-10-22T01:34:21.071Z,11.65
2022-10-22T01:36:52.754Z,11.32
2022-10-22T01:39:23.281Z,11.90
2022-10-22T01:41:52.166Z,11.70
2022-10-22T01:47:16.007Z,11.70
2022-10-22T01:50:17.229Z,11.85
2022-10-22T01:53:08.354Z,11.38
2022-10-22T01:55:44.993Z,11.27
2022-10-22T01:58:24.262Z,11.85
2022-10-22T02:01:02.216Z,11.73
2022-10-22T02:03:35.157Z,11.75
2022-10-22T02:06:08.976Z,11.85
2022-10-22T02:08:39.008Z,12.73
2022-10-22T02:11:07.993Z,13.10
2022-10-22T02:13:40.901Z,13.10
2022-10-22T02:16:14.369Z,11.82
2022-10-22T02:18:46.459Z,13.25
2022-10-22T02:21:15.843Z,12.90
2022-10-22T02:23:44.641Z,12.60
2022-10-22T02:26:23.721Z,12.55
2022-10-22T02:28:59.309Z,13.25
2022-10-22T02:31:32.615Z,12.65
2022-10-22T02:34:08.273Z,12.88
2022-10-22T02:36:40.134Z,13.32
2022-10-22T02:41:45.283Z,12.27
2022-10-22T02:44:13.839Z,12.57
2022-10-22T02:46:44.865Z,12.75
2022-10-22T02:49:13.241Z,13.17
2022-10-22T02:51:41.543Z,13.07
2022-10-22T02:54:09.763Z,13.00
2022-10-22T02:56:41.175Z,12.82
2022-10-22T02:59:09.768Z,13.05
2022-10-22T03:01:38.130Z,12.73
2022-10-22T03:04:09.944Z,13.95
2022-10-22T03:06:38.309Z,13.55
2022-10-22T03:09:07.775Z,14.20
2022-10-22T03:11:38.434Z,14.57
2022-10-22T03:14:07.429Z,14.30
2022-10-22T03:16:35.464Z,14.95
2022-10-22T03:19:03.921Z,15.13
2022-10-22T03:21:38.415Z,15.23
2022-10-22T03:24:11.038Z,14.23
2022-10-22T03:26:41.793Z,14.65
2022-10-22T03:29:11.901Z,14.55
2022-10-22T03:31:41.109Z,13.90
2022-10-22T03:34:15.308Z,14.25
2022-10-22T03:36:45.415Z,14.32
2022-10-22T03:39:15.648Z,14.98
2022-10-22T03:41:46.069Z,15.77
2022-10-22T03:44:14.738Z,15.45
2022-10-22T03:46:46.578Z,15.70
2022-10-22T03:49:14.651Z,15.15
2022-10-22T03:51:44.501Z,15.30
2022-10-22T03:54:12.987Z,15.27
2022-10-22T03:56:41.418Z,14.75
2022-10-22T03:59:09.454Z,15.40
2022-10-22T04:01:40.574Z,15.43
2022-10-22T04:04:09.459Z,15.50
2022-10-22T04:06:38.486Z,15.45
2022-10-22T04:09:09.239Z,16.20
2022-10-22T04:11:37.650Z,15.88
2022-10-22T04:14:06.568Z,15.85
2022-10-22T04:16:40.342Z,15.63
2022-10-22T04:19:08.866Z,15.82
2022-10-22T04:21:39.154Z,15.52
2022-10-22T04:24:11.835Z,16.15
2022-10-22T04:26:40.297Z,14.95
2022-10-22T04:29:11.973Z,14.95
2022-10-22T04:31:47.957Z,15.07
2022-10-22T04:34:15.994Z,14.43
2022-10-22T04:36:44.361Z,15.45
2022-10-22T04:39:16.598Z,15.07
2022-10-22T04:41:48.777Z,15.70
2022-10-22T04:44:17.135Z,16.05
2022-10-22T04:46:47.059Z,16.05
2022-10-22T04:49:15.453Z,17.02
2022-10-22T04:51:43.948Z,17.55
2022-10-22T04:54:14.965Z,17.38
2022-10-22T04:56:43.710Z,16.92
2022-10-22T04:59:14.949Z,15.80
2022-10-22T05:01:45.802Z,16.67
2022-10-22T05:04:17.529Z,16.13
2022-10-22T05:06:46.934Z,16.15
2022-10-22T05:09:18.711Z,15.90
2022-10-22T05:11:49.871Z,17.73
2022-10-22T05:14:20.107Z,16.67
2022-10-22T05:16:49.401Z,17.13
2022-10-22T05:19:20.374Z,16.33
2022-10-22T05:21:48.908Z,16.98
2022-10-22T05:24:19.607Z,17.35
2022-10-22T05:26:50.819Z,16.98
2022-10-22T05:29:24.430Z,16.67
2022-10-22T05:31:53.550Z,16.60
2022-10-22T05:34:21.595Z,16.88
2022-10-22T05:36:49.660Z,19.33
2022-10-22T05:39:22.021Z,17.42
2022-10-22T05:41:58.589Z,17.08
2022-10-22T05:44:29.491Z,18.30
2022-10-22T05:46:58.402Z,17.60
2022-10-22T05:49:28.240Z,18.35
2022-10-22T05:51:58.282Z,17.55
2022-10-22T05:54:28.073Z,17.83
2022-10-22T05:56:59.655Z,17.50
2022-10-22T05:59:30.221Z,17.20
2022-10-22T06:02:01.518Z,16.85
2022-10-22T06:04:30.234Z,17.02
2022-10-22T06:06:58.592Z,16.40
2022-10-22T06:14:40.687Z,17.47
2022-10-22T06:17:11.750Z,17.40
2022-10-22T06:19:40.420Z,17.67
2022-10-22T06:22:09.216Z,17.20
2022-10-22T06:24:45.129Z,17.67
2022-10-22T06:27:16.397Z,16.60
2022-10-22T06:29:45.927Z,16.73
2022-10-22T06:32:14.349Z,17.20
2022-10-22T06:34:43.975Z,17.15
2022-10-22T06:37:13.879Z,17.75
2022-10-22T06:39:43.804Z,18.15
2022-10-22T06:42:12.947Z,17.63
2022-10-22T06:44:41.226Z,17.52
2022-10-22T06:47:09.652Z,17.88
2022-10-22T06:49:37.949Z,16.35
2022-10-22T06:52:07.202Z,16.98
2022-10-22T06:54:36.376Z,16.83
2022-10-22T06:57:06.684Z,17.00
2022-10-22T06:59:38.581Z,16.08
2022-10-22T07:02:08.799Z,16.00
2022-10-22T07:04:37.192Z,15.52
2022-10-22T07:07:06.081Z,15.35
2022-10-22T07:09:34.289Z,15.93
2022-10-22T07:12:02.878Z,16.67
2022-10-22T07:14:35.510Z,15.68
2022-10-22T07:17:04.097Z,15.85
2022-10-22T07:19:33.861Z,13.68
2022-10-22T07:22:03.171Z,13.88
2022-10-22T07:24:31.372Z,14.07
2022-10-22T07:27:00.994Z,14.45
2022-10-22T07:29:29.585Z,14.07
2022-10-22T07:31:59.911Z,13.85
2022-10-22T07:34:28.257Z,14.15
2022-10-22T07:36:57.388Z,13.57
2022-10-22T07:39:27.473Z,13.77
2022-10-22T07:41:55.999Z,13.30
2022-10-22T07:44:24.704Z,14.70
2022-10-22T07:46:53.024Z,14.02
2022-10-22T07:49:23.967Z,13.30
2022-10-22T07:51:52.489Z,13.23
2022-10-22T07:54:20.887Z,13.10
2022-10-22T07:56:50.345Z,12.85
2022-10-22T07:59:18.785Z,13.05
2022-10-22T08:01:47.485Z,13.05
2022-10-22T08:04:15.526Z,12.85
2022-10-22T08:06:47.219Z,13.05
2022-10-22T08:09:16.544Z,13.57
2022-10-22T08:11:47.753Z,12.40
2022-10-22T08:14:16.881Z,13.13
2022-10-22T08:16:46.445Z,11.90
2022-10-22T08:19:19.443Z,12.57
2022-10-22T08:21:49.401Z,12.95
2022-10-22T08:24:17.943Z,14.00
2022-10-22T08:26:46.150Z,13.27
2022-10-22T08:29:14.590Z,14.48
2022-10-22T08:31:44.274Z,13.32
2022-10-22T08:34:13.523Z,12.48
2022-10-22T08:36:42.003Z,15.60
2022-10-22T08:39:11.904Z,13.02
2022-10-22T08:41:51.881Z,12.05
2022-10-22T08:44:57.125Z,12.55
2022-10-22T08:47:39.148Z,12.32
2022-10-22T08:50:10.685Z,12.43
2022-10-22T08:52:43.714Z,12.55
2022-10-22T08:55:16.508Z,12.45
2022-10-22T08:57:53.619Z,12.30
2022-10-22T09:00:25.379Z,13.10
2022-10-22T09:03:06.567Z,13.88
2022-10-22T09:05:47.035Z,14.18
2022-10-22T09:08:18.339Z,13.82
2022-10-22T09:10:51.568Z,14.13
2022-10-22T09:13:22.891Z,13.57
2022-10-22T09:15:58.573Z,13.00
2022-10-22T09:18:37.310Z,13.18
2022-10-22T09:21:18.376Z,13.07
2022-10-22T09:23:59.235Z,12.90
2022-10-22T09:26:28.933Z,12.93
2022-10-22T09:29:02.047Z,13.15
2022-10-22T09:31:33.808Z,12.98
2022-10-22T09:34:07.707Z,12.63
2022-10-22T09:36:36.336Z,12.45
2022-10-22T09:39:05.459Z,12.73
2022-10-22T09:41:37.864Z,12.88
2022-10-22T09:44:09.182Z,12.88
2022-10-22T09:46:44.984Z,13.05
2022-10-22T09:49:15.514Z,13.02
2022-10-22T09:51:52.215Z,13.60
2022-10-22T09:54:22.722Z,12.85
2022-10-22T09:56:58.045Z,12.15
2022-10-22T09:59:30.723Z,12.70
2022-10-22T10:02:13.839Z,12.50
2022-10-22T10:04:51.420Z,11.98
2022-10-22T10:07:23.077Z,12.80
2022-10-22T10:09:52.455Z,12.00
2022-10-22T10:12:33.556Z,12.82
2022-10-22T10:15:16.875Z,12.07
2022-10-22T10:17:52.414Z,12.55
2022-10-22T10:20:32.225Z,12.02
2022-10-22T10:23:10.522Z,12.25
2022-10-22T10:25:49.669Z,12.02
2022-10-22T10:28:46.822Z,11.95
2022-10-22T10:31:24.544Z,12.80
2022-10-22T10:34:00.563Z,12.63
2022-10-22T10:36:39.640Z,13.10
2022-10-22T10:39:14.017Z,12.82
2022-10-22T10:41:53.375Z,12.27
2022-10-22T10:44:52.150Z,12.70
2022-10-22T10:47:40.324Z,12.52
2022-10-22T10:50:20.144Z,13.10
2022-10-22T10:53:05.955Z,12.52
2022-10-22T10:55:43.668Z,12.82
2022-10-22T10:58:19.368Z,13.15
2022-10-22T11:01:00.261Z,13.07
2022-10-22T11:03:42.159Z,15.05
2022-10-22T11:06:13.300Z,13.45
2022-10-22T11:08:50.306Z,15.65
2022-10-22T11:11:23.016Z,15.40
2022-10-22T11:14:00.818Z,13.65
2022-10-22T11:16:36.860Z,14.38
2022-10-22T11:19:15.531Z,14.15
2022-10-22T11:21:57.916Z,13.90
2022-10-22T11:24:29.636Z,14.55
2022-10-22T11:27:02.438Z,14.77
2022-10-22T11:29:39.506Z,13.88
2022-10-22T11:32:14.975Z,13.73
2022-10-22T11:34:47.934Z,14.45
2022-10-22T11:37:18.091Z,14.38
2022-10-22T11:39:52.060Z,14.07
2022-10-22T11:42:22.520Z,14.35
2022-10-22T11:45:01.249Z,14.48
2022-10-22T11:47:34.409Z,14.82
2022-10-22T11:50:21.658Z,14.68
2022-10-22T11:53:00.378Z,14.52
2022-10-22T11:55:34.527Z,13.98
2022-10-22T11:58:04.336Z,13.90
2022-10-22T12:00:42.739Z,14.32
2022-10-22T12:03:20.188Z,13.90
2022-10-22T12:06:03.498Z,15.32
2022-10-22T12:08:33.132Z,14.38
2022-10-22T12:11:22.171Z,14.32
2022-10-22T12:14:02.841Z,15.70
2022-10-22T12:16:56.651Z,14.35
2022-10-22T12:19:30.590Z,15.88
2022-10-22T12:22:01.685Z,14.73
2022-10-22T12:24:33.997Z,14.07
2022-10-22T12:27:02.352Z,14.93
2022-10-22T12:29:33.756Z,14.43
2022-10-22T12:32:08.050Z,14.15
2022-10-22T12:37:24.500Z,14.75
2022-10-22T12:39:52.828Z,15.25
2022-10-22T12:42:23.799Z,14.77
2022-10-22T12:44:58.316Z,15.40
2022-10-22T12:47:32.428Z,14.93
2022-10-22T12:50:06.183Z,15.25
2022-10-22T12:52:35.203Z,15.57
2022-10-22T12:55:08.482Z,15.68
2022-10-22T12:57:39.761Z,14.85
2022-10-22T13:00:22.070Z,14.80
2022-10-22T13:02:54.346Z,15.65
2022-10-22T13:05:28.263Z,16.30
2022-10-22T13:08:06.860Z,15.43
2022-10-22T13:10:39.174Z,14.68
2022-10-22T13:13:08.095Z,15.25
2022-10-22T13:15:42.691Z,14.93
2022-10-22T13:18:19.533Z,15.48
2022-10-22T13:20:59.109Z,14.55
2022-10-22T13:23:29.979Z,15.48
2022-10-22T13:26:00.487Z,15.52
2022-10-22T13:28:29.709Z,16.02
2022-10-22T13:31:00.127Z,15.63
2022-10-22T13:33:32.113Z,15.75
2022-10-22T13:36:01.811Z,15.57
2022-10-22T13:38:30.503Z,19.98
2022-10-22T13:41:00.836Z,22.85
2022-10-22T13:43:29.309Z,19.02
2022-10-22T13:46:00.266Z,18.35
2022-10-22T13:48:29.758Z,17.63
2022-10-22T13:50:58.003Z,19.23
2022-10-22T13:53:30.832Z,17.85
2022-10-22T13:55:59.855Z,16.77
2022-10-22T13:58:29.482Z,16.17
2022-10-22T14:01:03.164Z,16.52
2022-10-22T14:03:35.148Z,17.40
2022-10-22T14:06:03.358Z,16.70
2022-10-22T14:08:33.329Z,17.58
2022-10-22T14:11:01.774Z,17.55
2022-10-22T14:13:29.976Z,18.40
2022-10-22T14:15:58.762Z,19.10
2022-10-22T14:18:31.693Z,17.75
2022-10-22T14:21:05.031Z,17.50
2022-10-22T14:23:37.258Z,16.88
2022-10-22T14:26:07.704Z,17.33
2022-10-22T14:28:41.234Z,16.88
2022-10-22T14:31:12.295Z,17.02
2022-10-22T14:33:41.155Z,16.73
2022-10-22T14:36:13.083Z,16.73
2022-10-22T14:41:20.039Z,16.00
2022-10-22T14:43:49.384Z,17.55
2022-10-22T14:46:18.689Z,17.02
2022-10-22T14:48:47.465Z,17.35
2022-10-22T14:51:19.010Z,18.00
2022-10-22T14:53:50.078Z,16.77
2022-10-22T14:56:21.320Z,17.65
2022-10-22T14:58:50.716Z,17.02
2022-10-22T15:01:19.339Z,16.95
2022-10-22T15:03:47.913Z,17.00
2022-10-22T15:06:16.390Z,18.20
2022-10-22T15:08:46.310Z,17.50
2022-10-22T15:11:16.491Z,17.58
2022-10-22T15:13:45.257Z,17.90
2022-10-22T15:16:16.942Z,18.13
2022-10-22T15:18:45.697Z,18.27
2022-10-22T15:21:17.276Z,18.67
2022-10-22T15:23:45.768Z,19.17
2022-10-22T15:26:16.071Z,17.80
2022-10-22T15:28:44.977Z,17.40
2022-10-22T15:31:15.023Z,17.77
2022-10-22T15:33:44.162Z,18.92
2022-10-22T15:36:15.044Z,18.48
2022-10-22T15:38:44.510Z,19.30
2022-10-22T15:41:16.218Z,18.60
2022-10-22T15:43:44.936Z,24.30
2022-10-22T15:46:16.804Z,27.13
2022-10-22T15:48:47.440Z,23.63
2022-10-22T15:51:20.775Z,19.57
2022-10-22T15:53:53.156Z,19.70
2022-10-22T15:56:25.313Z,19.45
2022-10-22T16:01:26.572Z,19.38
2022-10-22T16:04:02.866Z,20.30
2022-10-22T16:06:33.688Z,21.02
2022-10-22T16:09:05.347Z,24.63
2022-10-22T16:11:40.359Z,22.00
2022-10-22T16:14:10.272Z,21.60
2022-10-22T16:16:42.863Z,22.08
2022-10-22T16:19:12.891Z,23.65
2022-10-22T16:21:42.153Z,21.77
2022-10-22T16:24:10.676Z,22.70
2022-10-22T16:26:40.899Z,21.92
2022-10-22T16:29:13.595Z,22.10
2022-10-22T16:31:43.805Z,23.20
2022-10-22T16:34:13.058Z,23.00
2022-10-22T16:36:46.199Z,23.75
2022-10-22T16:39:17.127Z,24.67
2022-10-22T16:41:48.187Z,25.58
2022-10-22T16:44:17.170Z,26.98
2022-10-22T16:46:48.545Z,28.30
2022-10-22T16:49:19.557Z,29.45
2022-10-22T16:51:51.257Z,27.02
2022-10-22T16:54:22.115Z,26.52
2022-10-22T16:56:53.218Z,27.30
2022-10-22T16:59:22.348Z,27.65
2022-10-22T17:01:52.850Z,28.50
2022-10-22T17:04:23.047Z,29.33
2022-10-22T17:06:52.343Z,29.88
2022-10-22T17:09:24.762Z,34.70
2022-10-22T17:11:56.221Z,30.98
2022-10-22T17:14:25.253Z,34.25
2022-10-22T17:16:59.196Z,38.03
2022-10-22T17:19:31.836Z,32.95
2022-10-22T17:22:03.038Z,34.00
2022-10-22T17:24:33.092Z,32.22
2022-10-22T17:29:37.932Z,32.63
2022-10-22T17:32:06.671Z,31.92
2022-10-22T17:34:35.473Z,32.58
2022-10-22T17:37:06.441Z,33.38
2022-10-22T17:39:35.164Z,35.80
2022-10-22T17:42:06.476Z,44.95
2022-10-22T17:44:43.339Z,38.00
2022-10-22T17:47:12.956Z,35.63
2022-10-22T17:49:43.235Z,39.47
2022-10-22T17:52:13.867Z,35.00
2022-10-22T17:54:42.917Z,34.13
2022-10-22T17:57:14.596Z,30.92
2022-10-22T18:02:18.155Z,31.17
2022-10-22T18:04:46.903Z,31.23
2022-10-22T18:07:18.508Z,32.38
2022-10-22T18:09:48.087Z,33.22
2022-10-22T18:12:19.576Z,31.45
2022-10-22T18:14:50.357Z,32.42
2022-10-22T18:17:21.128Z,32.75
2022-10-22T18:19:51.637Z,33.25
2022-10-22T18:22:21.570Z,31.80
2022-10-22T18:24:50.932Z,32.58
2022-10-22T18:27:21.412Z,32.03
2022-10-22T18:29:57.355Z,33.33
2022-10-22T18:32:26.917Z,33.15
2022-10-22T18:34:55.470Z,32.90
2022-10-22T18:37:23.996Z,33.72
2022-10-22T18:39:52.821Z,31.52
2022-10-22T18:42:26.458Z,31.90
2022-10-22T18:44:58.073Z,30.63
2022-10-22T18:47:27.708Z,31.77
2022-10-22T18:50:00.257Z,32.75
2022-10-22T18:52:32.512Z,34.83
2022-10-22T18:55:08.275Z,32.28
2022-10-22T18:57:38.968Z,32.85
2022-10-22T19:00:09.780Z,31.92
2022-10-22T19:02:39.246Z,30.75
2022-10-22T19:05:09.744Z,32.38
2022-10-22T19:07:39.033Z,33.47
2022-10-22T19:10:09.234Z,32.42
2022-10-22T19:12:45.118Z,32.33
2022-10-22T19:15:18.715Z,32.15
2022-10-22T19:17:48.477Z,32.45
2022-10-22T19:20:17.562Z,34.50
2022-10-22T19:22:48.500Z,34.85
2022-10-22T19:25:17.212Z,34.40
2022-10-22T19:27:51.898Z,34.35
2022-10-22T19:30:20.838Z,35.67
2022-10-22T19:32:50.187Z,35.65
2022-10-22T19:35:20.248Z,36.50
2022-10-22T19:37:49.916Z,35.38
2022-10-22T19:40:25.722Z,34.28
2022-10-22T19:42:56.669Z,36.53
2022-10-22T19:45:25.905Z,35.88
2022-10-22T19:47:54.785Z,37.28
2022-10-22T19:50:23.794Z,35.42
2022-10-22T19:52:55.886Z,36.28
2022-10-22T19:55:24.680Z,35.20
2022-10-22T19:57:55.953Z,38.20
2022-10-22T20:00:29.217Z,35.45
2022-10-22T20:03:00.976Z,35.13
2022-10-22T20:08:01.152Z,37.92
2022-10-22T20:10:30.155Z,39.95
2022-10-22T20:12:59.513Z,39.35
2022-10-22T20:15:32.706Z,41.10
2022-10-22T20:18:06.175Z,38.00
2022-10-22T20:20:39.103Z,38.63
2022-10-22T20:23:09.646Z,37.63
2022-10-22T20:25:44.718Z,36.70
2022-10-22T20:28:15.455Z,36.90
2022-10-22T20:30:46.616Z,38.10
2022-10-22T20:33:16.652Z,39.10
2022-10-22T20:35:47.336Z,37.17
2022-10-22T20:38:18.896Z,37.30
2022-10-22T20:41:00.742Z,39.08
2022-10-22T20:43:31.304Z,36.50
2022-10-22T20:46:02.135Z,36.67
2022-10-22T20:48:33.483Z,37.95
2022-10-22T20:51:05.226Z,38.07
2022-10-22T20:53:46.119Z,36.15
2022-10-22T20:56:15.588Z,35.00
2022-10-22T20:58:48.544Z,33.75
2022-10-22T21:01:24.674Z,33.53
2022-10-22T21:03:58.374Z,34.55
2022-10-22T21:06:26.666Z,33.65
2022-10-22T21:09:02.788Z,34.42
2022-10-22T21:11:31.181Z,32.20
2022-10-22T21:14:00.351Z,31.08
2022-10-22T21:16:31.124Z,32.38
2022-10-22T21:19:06.707Z,33.00
2022-10-22T21:21:35.511Z,32.13
2022-10-22T21:24:06.219Z,31.63
2022-10-22T21:26:40.233Z,31.80
2022-10-22T21:29:08.973Z,33.60
2022-10-22T21:31:42.930Z,30.63
2022-10-22T21:34:13.960Z,29.60
2022-10-22T21:36:42.957Z,30.23
2022-10-22T21:39:11.882Z,29.88
2022-10-22T21:41:40.936Z,29.45
2022-10-22T21:44:09.167Z,30.80
2022-10-22T21:46:40.349Z,30.77
2022-10-22T21:49:08.455Z,30.52
2022-10-22T21:51:39.273Z,30.65
2022-10-22T21:54:09.919Z,32.10
2022-10-22T21:56:38.035Z,30.13
2022-10-22T21:59:11.676Z,33.33
2022-10-22T22:01:44.801Z,33.55
2022-10-22T22:04:13.277Z,33.03
2022-10-22T22:06:41.574Z,34.00
2022-10-22T22:09:13.562Z,31.83
2022-10-22T22:11:42.824Z,31.90
2022-10-22T22:14:12.217Z,31.58
2022-10-22T22:19:13.556Z,36.05
2022-10-22T22:21:42.916Z,35.90
2022-10-22T22:24:14.345Z,34.95
2022-10-22T22:26:42.566Z,35.15
2022-10-22T22:29:11.859Z,36.88
2022-10-22T22:31:40.742Z,37.60
2022-10-22T22:34:18.274Z,35.20
2022-10-22T22:36:51.378Z,35.42
2022-10-22T22:39:22.777Z,34.85
2022-10-22T22:41:51.444Z,39.60
2022-10-22T22:44:19.812Z,38.47
2022-10-22T22:46:48.551Z,35.40
2022-10-22T22:49:18.586Z,36.25
2022-10-22T22:51:47.139Z,34.80
2022-10-22T22:54:15.380Z,37.58
2022-10-22T22:56:45.763Z,37.38
2022-10-22T22:59:14.023Z,37.40
2022-10-22T23:01:42.651Z,41.20
2022-10-22T23:04:13.703Z,39.30
2022-10-22T23:06:43.892Z,42.80
2022-10-22T23:09:14.896Z,41.63
2022-10-22T23:11:45.042Z,41.63
2022-10-22T23:14:15.844Z,38.80
2022-10-22T23:16:46.997Z,41.70
2022-10-22T23:19:17.778Z,38.20
2022-10-22T23:21:49.434Z,39.53
2022-10-22T23:24:22.176Z,40.85
2022-10-22T23:26:52.071Z,37.83
2022-10-22T23:29:26.663Z,43.47
2022-10-22T23:31:54.874Z,44.35
2022-10-22T23:34:27.602Z,45.03
2022-10-22T23:36:58.365Z,47.80
2022-10-22T23:39:29.738Z,50.00
2022-10-22T23:41:58.518Z,49.07
2022-10-22T23:44:29.938Z,45.92
2022-10-22T23:46:58.710Z,41.35
2022-10-22T23:49:28.194Z,42.65
2022-10-22T23:52:02.125Z,41.95
2022-10-22T23:54:30.733Z,42.58
2022-10-22T23:56:58.983Z,46.45
2022-10-22T23:59:29.559Z,46.85
